Time;durP1;ratioP1;P1;durP2;ratioP2;P2;SDS_P1;SDS_P2;PMS_P1;PMS_P2;Temp;Humidity;BMP_temperature;BMP_pressure;BME280_temperature;BME280_humidity;BME280_pressure;Samples;Min_cycle;Max_cycle;Signal;HPM_P1;HPM_P2
2023/05/17 00:00:29;;;;;;;;;;;13.30;74.20;;;;;;5090002;28;19912;-71
2023/05/17 00:02:55;;;;;;;;;;;13.30;74.30;;;;;;5089784;28;19970;-71
2023/05/17 00:05:20;;;;;;;;;;;13.20;74.10;;;;;;5089014;28;19912;-71
2023/05/17 00:07:47;;;;;;;;;;;13.20;74.00;;;;;;5090010;28;20410;-71
2023/05/17 00:10:12;;;;;;;;;;;13.20;74.10;;;;;;5090001;28;20326;-72
2023/05/17 00:12:38;;;;;;;;;;;13.20;74.10;;;;;;5089822;28;19916;-72
2023/05/17 00:15:05;;;;;;;;;;;13.20;74.10;;;;;;5089794;28;20371;-71
2023/05/17 00:17:30;;;;;;;;;;;13.10;74.00;;;;;;5089712;28;20003;-71
2023/05/17 00:19:56;;;;;;;;;;;13.00;74.10;;;;;;5089720;28;19934;-72
2023/05/17 00:22:21;;;;;;;;;;;12.90;74.10;;;;;;5089736;28;20015;-71
2023/05/17 00:24:47;;;;;;;;;;;12.80;74.10;;;;;;5089646;28;19912;-71
2023/05/17 00:27:12;;;;;;;;;;;12.80;74.10;;;;;;5089679;28;19912;-71
2023/05/17 00:29:38;;;;;;;;;;;12.80;74.10;;;;;;5088325;28;19915;-71
2023/05/17 00:32:04;;;;;;;;;;;12.70;74.00;;;;;;5089414;28;19985;-72
2023/05/17 00:34:29;;;;;;;;;;;12.70;73.90;;;;;;5088056;28;20027;-72
2023/05/17 00:36:55;;;;;;;;;;;12.60;74.00;;;;;;5089488;28;19963;-72
2023/05/17 00:39:20;;;;;;;;;;;12.60;74.10;;;;;;5089332;28;19912;-72
2023/05/17 00:41:46;;;;;;;;;;;12.50;74.10;;;;;;5088020;28;19976;-72
2023/05/17 00:44:11;;;;;;;;;;;12.50;74.10;;;;;;5089270;28;19912;-72
2023/05/17 00:46:37;;;;;;;;;;;12.50;74.00;;;;;;5087938;28;19916;-72
2023/05/17 00:49:02;;;;;;;;;;;12.40;73.80;;;;;;5087808;28;20124;-72
2023/05/17 00:51:28;;;;;;;;;;;12.40;73.70;;;;;;5089196;28;19912;-72
2023/05/17 00:53:54;;;;;;;;;;;12.30;73.60;;;;;;5089144;28;20065;-72
2023/05/17 00:56:19;;;;;;;;;;;12.30;73.60;;;;;;5089118;28;20398;-72
2023/05/17 00:58:45;;;;;;;;;;;12.30;73.70;;;;;;5087700;28;20005;-72
2023/05/17 01:01:10;;;;;;;;;;;12.20;73.80;;;;;;5088922;28;19912;-72
2023/05/17 01:03:36;;;;;;;;;;;12.20;73.90;;;;;;5089049;28;19915;-72
2023/05/17 01:06:03;;;;;;;;;;;12.20;74.00;;;;;;5088964;28;20003;-72
2023/05/17 01:08:29;;;;;;;;;;;12.20;74.00;;;;;;5088462;28;19927;-72
2023/05/17 01:11:15;;;;;;;;;;;12.10;73.90;;;;;;5088389;28;19912;-72
2023/05/17 01:14:01;;;;;;;;;;;12.00;74.00;;;;;;5081127;28;20378;-72
2023/05/17 01:16:30;;;;;;;;;;;12.00;74.00;;;;;;5088730;28;19915;-72
2023/05/17 01:19:01;;;;;;;;;;;11.90;74.00;;;;;;5088578;28;20390;-72
2023/05/17 01:21:56;;;;;;;;;;;11.90;74.10;;;;;;5088662;28;20010;-72
2023/05/17 01:24:27;;;;;;;;;;;11.80;74.10;;;;;;5079498;28;19931;-71
2023/05/17 01:26:53;;;;;;;;;;;11.80;74.10;;;;;;5088588;28;19915;-72
2023/05/17 01:29:22;;;;;;;;;;;11.90;74.00;;;;;;5088700;28;19912;-72
2023/05/17 01:31:48;;;;;;;;;;;11.90;73.90;;;;;;5088326;28;19922;-72
2023/05/17 01:34:22;;;;;;;;;;;11.90;74.00;;;;;;5088357;28;19908;-72
2023/05/17 01:36:48;;;;;;;;;;;11.90;74.00;;;;;;5088836;28;19956;-72
2023/05/17 01:39:13;;;;;;;;;;;11.90;73.90;;;;;;5086965;28;19959;-72
2023/05/17 01:41:41;;;;;;;;;;;11.90;73.80;;;;;;5088263;28;20291;-72
2023/05/17 01:44:21;;;;;;;;;;;11.90;73.70;;;;;;5088205;28;20253;-72
2023/05/17 01:46:49;;;;;;;;;;;11.90;73.80;;;;;;5088236;28;20305;-72
2023/05/17 01:49:36;;;;;;;;;;;11.90;73.80;;;;;;5088141;28;19912;-71
2023/05/17 01:52:02;;;;;;;;;;;11.90;73.80;;;;;;5087649;28;20348;-71
2023/05/17 01:54:30;;;;;;;;;;;11.80;73.80;;;;;;5088134;28;20245;-71
2023/05/17 01:57:00;;;;;;;;;;;11.70;73.80;;;;;;5086743;28;19961;-71
2023/05/17 01:59:26;;;;;;;;;;;11.70;73.90;;;;;;5086684;28;20423;-71
2023/05/17 02:01:57;;;;;;;;;;;11.70;73.90;;;;;;5087867;28;19978;-71
2023/05/17 02:04:23;;;;;;;;;;;11.70;73.90;;;;;;5088256;28;19912;-71
2023/05/17 02:06:48;;;;;;;;;;;11.60;74.10;;;;;;5088148;28;20376;-71
2023/05/17 02:09:14;;;;;;;;;;;11.50;74.20;;;;;;5086821;28;19927;-71
2023/05/17 02:11:40;;;;;;;;;;;11.50;74.30;;;;;;5086672;28;20531;-71
2023/05/17 02:14:05;;;;;;;;;;;11.50;74.30;;;;;;5087963;28;19912;-71
2023/05/17 02:16:31;;;;;;;;;;;11.50;74.30;;;;;;5087828;28;19955;-71
2023/05/17 02:18:56;;;;;;;;;;;11.40;74.20;;;;;;5087792;28;19912;-71
2023/05/17 02:21:22;;;;;;;;;;;11.40;74.30;;;;;;5090642;28;20287;-71
2023/05/17 02:23:47;;;;;;;;;;;11.40;74.30;;;;;;5091997;28;19929;-72
2023/05/17 02:26:13;;;;;;;;;;;11.40;74.70;;;;;;5091960;28;19912;-71
2023/05/17 02:28:38;;;;;;;;;;;11.40;74.20;;;;;;5090626;28;19919;-71
2023/05/17 02:31:06;;;;;;;;;;;11.50;74.00;;;;;;5091762;28;19912;-71
2023/05/17 02:33:32;;;;;;;;;;;11.50;73.80;;;;;;5091885;28;20342;-71
2023/05/17 02:35:57;;;;;;;;;;;11.50;73.60;;;;;;5091767;28;19920;-71
2023/05/17 02:38:23;;;;;;;;;;;11.40;73.40;;;;;;5090541;28;20279;-71
2023/05/17 02:40:49;;;;;;;;;;;11.40;73.40;;;;;;5091558;28;19920;-71
2023/05/17 02:43:14;;;;;;;;;;;11.30;73.40;;;;;;5090339;28;19919;-71
2023/05/17 02:45:40;;;;;;;;;;;11.30;73.90;;;;;;5091581;28;19912;-71
2023/05/17 02:48:05;;;;;;;;;;;11.10;73.50;;;;;;5091702;28;19976;-71
2023/05/17 02:50:31;;;;;;;;;;;11.00;73.70;;;;;;5090421;28;19912;-71
2023/05/17 02:52:56;;;;;;;;;;;10.90;73.90;;;;;;5090269;28;19916;-71
2023/05/17 02:55:22;;;;;;;;;;;10.90;74.10;;;;;;5091569;28;20265;-71
2023/05/17 02:57:48;;;;;;;;;;;10.80;74.20;;;;;;5089979;28;19912;-71
2023/05/17 03:00:13;;;;;;;;;;;10.90;74.30;;;;;;5091339;28;20459;-71
2023/05/17 03:02:39;;;;;;;;;;;11.00;74.20;;;;;;5091381;28;19924;-71
2023/05/17 03:05:05;;;;;;;;;;;11.00;74.00;;;;;;5091195;28;20019;-71
2023/05/17 03:07:30;;;;;;;;;;;11.10;73.90;;;;;;5091430;28;19916;-71
2023/05/17 03:09:56;;;;;;;;;;;11.10;73.80;;;;;;5091200;28;19915;-71
2023/05/17 03:12:21;;;;;;;;;;;11.20;73.80;;;;;;5091150;28;19916;-71
2023/05/17 03:14:47;;;;;;;;;;;11.30;73.90;;;;;;5091051;28;19955;-71
2023/05/17 03:17:13;;;;;;;;;;;11.30;73.90;;;;;;5090883;28;19912;-71
2023/05/17 03:19:38;;;;;;;;;;;11.30;73.80;;;;;;5090959;28;19940;-71
2023/05/17 03:22:04;;;;;;;;;;;11.40;73.80;;;;;;5091034;28;19912;-72
2023/05/17 03:24:29;;;;;;;;;;;11.40;73.70;;;;;;5090876;28;19955;-71
2023/05/17 03:26:55;;;;;;;;;;;11.40;73.60;;;;;;5090865;28;19973;-71
2023/05/17 03:29:20;;;;;;;;;;;11.40;73.60;;;;;;5090730;28;20015;-71
2023/05/17 03:31:46;;;;;;;;;;;11.40;73.60;;;;;;5088625;28;19924;-71
2023/05/17 03:34:11;;;;;;;;;;;11.40;73.60;;;;;;5090793;28;20398;-71
2023/05/17 03:36:38;;;;;;;;;;;11.40;73.60;;;;;;5090689;28;20252;-71
2023/05/17 03:39:03;;;;;;;;;;;11.30;73.60;;;;;;5090516;28;19952;-71
2023/05/17 03:41:30;;;;;;;;;;;11.30;73.80;;;;;;5090614;28;20321;-71
2023/05/17 03:43:56;;;;;;;;;;;11.30;73.90;;;;;;5090539;28;19953;-71
2023/05/17 03:46:22;;;;;;;;;;;11.30;74.00;;;;;;5090436;28;19912;-71
2023/05/17 03:48:47;;;;;;;;;;;11.30;74.40;;;;;;5090403;28;19918;-71
2023/05/17 03:51:13;;;;;;;;;;;11.30;73.80;;;;;;5090687;28;20006;-72
2023/05/17 03:53:42;;;;;;;;;;;11.30;73.70;;;;;;5090231;28;19912;-71
2023/05/17 03:56:10;;;;;;;;;;;11.30;73.70;;;;;;5090303;28;19912;-71
2023/05/17 03:58:36;;;;;;;;;;;11.30;73.80;;;;;;5090229;28;20372;-71
2023/05/17 04:01:02;;;;;;;;;;;11.20;73.80;;;;;;5090018;28;19963;-71
2023/05/17 04:03:27;;;;;;;;;;;11.20;73.90;;;;;;5089883;28;19924;-71
2023/05/17 04:05:54;;;;;;;;;;;11.10;74.00;;;;;;5089965;28;19908;-71
2023/05/17 04:08:20;;;;;;;;;;;11.10;74.00;;;;;;5090069;28;19919;-71
2023/05/17 04:10:45;;;;;;;;;;;11.10;74.00;;;;;;5089918;28;19935;-71
2023/05/17 04:13:11;;;;;;;;;;;11.10;74.00;;;;;;5089861;28;20388;-71
2023/05/17 04:15:36;;;;;;;;;;;11.20;74.50;;;;;;5090450;28;19924;-71
2023/05/17 04:18:02;;;;;;;;;;;11.20;73.90;;;;;;5090051;28;20420;-71
2023/05/17 04:20:27;;;;;;;;;;;11.20;73.90;;;;;;5089746;28;19961;-71
2023/05/17 04:22:53;;;;;;;;;;;11.20;73.90;;;;;;5089761;28;19908;-71
2023/05/17 04:25:18;;;;;;;;;;;11.30;73.90;;;;;;5089734;28;20006;-71
2023/05/17 04:27:44;;;;;;;;;;;11.30;73.80;;;;;;5089757;28;20004;-71
2023/05/17 04:30:10;;;;;;;;;;;11.30;73.80;;;;;;5089562;28;19916;-71
2023/05/17 04:32:36;;;;;;;;;;;11.30;73.70;;;;;;5089517;28;19924;-71
2023/05/17 04:35:02;;;;;;;;;;;11.30;73.60;;;;;;5089519;28;19922;-71
2023/05/17 04:37:27;;;;;;;;;;;11.20;73.50;;;;;;5089514;28;19927;-71
2023/05/17 04:39:53;;;;;;;;;;;11.20;73.50;;;;;;5089475;28;19935;-71
2023/05/17 04:42:18;;;;;;;;;;;11.20;73.60;;;;;;5089414;28;19912;-71
2023/05/17 04:44:44;;;;;;;;;;;11.10;73.60;;;;;;5088186;28;19916;-71
2023/05/17 04:47:10;;;;;;;;;;;11.10;73.60;;;;;;5088022;28;20295;-71
2023/05/17 04:49:36;;;;;;;;;;;11.10;73.50;;;;;;5089044;28;19912;-71
2023/05/17 04:52:01;;;;;;;;;;;11.10;73.50;;;;;;5088737;28;19939;-71
2023/05/17 04:54:27;;;;;;;;;;;11.00;73.60;;;;;;5088583;28;19935;-71
2023/05/17 04:56:52;;;;;;;;;;;11.00;73.60;;;;;;5088442;28;19962;-71
2023/05/17 04:59:18;;;;;;;;;;;11.10;73.60;;;;;;5088155;28;19917;-71
2023/05/17 05:01:44;;;;;;;;;;;11.10;73.60;;;;;;5088208;28;20416;-71
2023/05/17 05:04:09;;;;;;;;;;;11.10;73.60;;;;;;5088448;28;19912;-71
2023/05/17 05:06:35;;;;;;;;;;;11.10;73.60;;;;;;5087240;28;19912;-71
2023/05/17 05:09:01;;;;;;;;;;;11.10;73.60;;;;;;5087249;28;19914;-71
2023/05/17 05:11:26;;;;;;;;;;;11.20;73.60;;;;;;5088094;28;19923;-71
2023/05/17 05:13:52;;;;;;;;;;;11.20;73.60;;;;;;5088146;28;19951;-71
2023/05/17 05:16:17;;;;;;;;;;;11.20;73.60;;;;;;5087026;28;19978;-71
2023/05/17 05:18:43;;;;;;;;;;;11.20;73.60;;;;;;5088042;28;19919;-71
2023/05/17 05:21:08;;;;;;;;;;;11.30;73.70;;;;;;5088164;28;20049;-71
2023/05/17 05:23:34;;;;;;;;;;;11.30;73.70;;;;;;5088111;28;19916;-71
2023/05/17 05:26:00;;;;;;;;;;;11.30;73.60;;;;;;5088069;28;19912;-71
2023/05/17 05:28:25;;;;;;;;;;;11.40;73.70;;;;;;5088188;28;20293;-71
2023/05/17 05:30:55;;;;;;;;;;;11.40;73.70;;;;;;5087906;28;19920;-71
2023/05/17 05:33:21;;;;;;;;;;;11.50;73.70;;;;;;5087677;28;19935;-71
2023/05/17 05:35:47;;;;;;;;;;;11.50;73.60;;;;;;5087954;28;19912;-71
2023/05/17 05:38:12;;;;;;;;;;;11.60;73.70;;;;;;5087763;28;20296;-71
2023/05/17 05:40:38;;;;;;;;;;;11.70;73.80;;;;;;5087798;28;19942;-71
2023/05/17 05:43:04;;;;;;;;;;;11.80;73.80;;;;;;5086648;28;19919;-71
2023/05/17 05:45:29;;;;;;;;;;;11.80;73.60;;;;;;5087886;28;19955;-71
2023/05/17 05:47:55;;;;;;;;;;;11.90;73.50;;;;;;5086249;28;19912;-71
2023/05/17 05:50:20;;;;;;;;;;;11.90;73.60;;;;;;5087787;28;19912;-71
2023/05/17 05:52:46;;;;;;;;;;;12.00;73.70;;;;;;5087614;28;19981;-72
2023/05/17 05:55:11;;;;;;;;;;;12.20;73.80;;;;;;5087403;28;19914;-71
2023/05/17 05:57:37;;;;;;;;;;;12.30;73.90;;;;;;5087553;28;20384;-71
2023/05/17 06:00:03;;;;;;;;;;;12.40;73.90;;;;;;5087358;28;19943;-72
2023/05/17 06:02:29;;;;;;;;;;;12.50;73.80;;;;;;5087743;28;19924;-72
2023/05/17 06:04:54;;;;;;;;;;;12.60;73.70;;;;;;5087632;28;19912;-72
2023/05/17 06:07:20;;;;;;;;;;;12.80;73.80;;;;;;5087390;28;20313;-72
2023/05/17 06:09:46;;;;;;;;;;;13.00;73.90;;;;;;5087212;28;19920;-72
2023/05/17 06:12:11;;;;;;;;;;;13.40;74.00;;;;;;5087449;28;20283;-72
2023/05/17 06:14:37;;;;;;;;;;;14.10;73.90;;;;;;5086016;28;19908;-72
2023/05/17 06:17:03;;;;;;;;;;;14.70;73.20;;;;;;5087189;28;19916;-72
2023/05/17 06:19:28;;;;;;;;;;;14.90;72.50;;;;;;5087171;28;19935;-72
2023/05/17 06:21:54;;;;;;;;;;;15.10;72.50;;;;;;5086999;28;19922;-72
2023/05/17 06:24:19;;;;;;;;;;;15.40;72.70;;;;;;5087094;28;20397;-72
2023/05/17 06:26:46;;;;;;;;;;;16.10;72.40;;;;;;5087213;28;19912;-72
2023/05/17 06:29:11;;;;;;;;;;;16.90;72.40;;;;;;5086832;28;20010;-72
2023/05/17 06:31:37;;;;;;;;;;;17.80;71.70;;;;;;5087383;28;20046;-72
2023/05/17 06:34:02;;;;;;;;;;;18.40;71.30;;;;;;5085792;28;19912;-72
2023/05/17 06:36:28;;;;;;;;;;;19.10;71.40;;;;;;5087302;28;19908;-72
2023/05/17 06:38:54;;;;;;;;;;;19.60;71.40;;;;;;5086903;28;19925;-72
2023/05/17 06:41:19;;;;;;;;;;;20.00;71.30;;;;;;5085907;28;19935;-72
2023/05/17 06:43:45;;;;;;;;;;;20.10;71.30;;;;;;5086028;28;19916;-72
2023/05/17 06:46:10;;;;;;;;;;;19.90;71.00;;;;;;5086975;28;20390;-72
2023/05/17 06:48:36;;;;;;;;;;;19.50;71.00;;;;;;5087071;28;20007;-72
2023/05/17 06:51:01;;;;;;;;;;;19.10;71.20;;;;;;5085803;28;19916;-72
2023/05/17 06:53:27;;;;;;;;;;;18.50;71.60;;;;;;5087158;28;19916;-73
2023/05/17 06:55:53;;;;;;;;;;;18.00;72.80;;;;;;5086753;28;19908;-72
2023/05/17 06:58:18;;;;;;;;;;;17.60;72.70;;;;;;5087057;28;20288;-72
2023/05/17 07:00:44;;;;;;;;;;;17.30;73.10;;;;;;5086558;28;19912;-72
2023/05/17 07:03:10;;;;;;;;;;;17.10;73.40;;;;;;5086679;28;19951;-72
2023/05/17 07:05:35;;;;;;;;;;;17.00;73.60;;;;;;5085396;28;20356;-72
2023/05/17 07:08:01;;;;;;;;;;;17.00;73.90;;;;;;5088616;28;20376;-72
2023/05/17 07:10:27;;;;;;;;;;;17.40;74.50;;;;;;5090371;28;19912;-72
2023/05/17 07:12:52;;;;;;;;;;;18.40;75.20;;;;;;5090486;28;19959;-72
2023/05/17 07:15:18;;;;;;;;;;;19.70;74.20;;;;;;5090608;28;19912;-72
2023/05/17 07:17:43;;;;;;;;;;;20.90;73.60;;;;;;5089183;28;19913;-72
2023/05/17 07:20:09;;;;;;;;;;;22.00;73.30;;;;;;5090019;28;19916;-72
2023/05/17 07:22:36;;;;;;;;;;;22.90;72.80;;;;;;5090042;28;19922;-70
2023/05/17 07:25:01;;;;;;;;;;;23.70;72.60;;;;;;5090154;28;19908;-71
2023/05/17 07:27:27;;;;;;;;;;;24.30;72.00;;;;;;5090065;28;19965;-71
2023/05/17 07:29:53;;;;;;;;;;;24.10;71.50;;;;;;5090005;28;19991;-72
2023/05/17 07:32:18;;;;;;;;;;;24.00;72.10;;;;;;5090280;28;19920;-72
2023/05/17 07:34:44;;;;;;;;;;;24.00;72.00;;;;;;5089937;28;19912;-70
2023/05/17 07:37:10;;;;;;;;;;;23.90;72.10;;;;;;5089827;28;19916;-70
2023/05/17 07:39:36;;;;;;;;;;;23.90;72.50;;;;;;5089802;28;19919;-72
2023/05/17 07:42:01;;;;;;;;;;;24.10;73.10;;;;;;5088183;28;20287;-70
2023/05/17 07:44:27;;;;;;;;;;;24.10;72.80;;;;;;5089799;28;20031;-71
2023/05/17 07:46:52;;;;;;;;;;;24.00;72.70;;;;;;5089851;28;20273;-71
2023/05/17 07:49:18;;;;;;;;;;;23.90;72.90;;;;;;5089454;28;19951;-72
2023/05/17 07:51:44;;;;;;;;;;;23.90;73.40;;;;;;5089445;28;20323;-73
2023/05/17 07:54:11;;;;;;;;;;;23.70;73.40;;;;;;5089106;28;20264;-72
2023/05/17 07:56:37;;;;;;;;;;;23.70;73.70;;;;;;5089281;28;20093;-71
2023/05/17 07:59:02;;;;;;;;;;;23.80;73.80;;;;;;5089764;28;20013;-73
2023/05/17 08:01:28;;;;;;;;;;;23.60;73.70;;;;;;5089799;28;21080;-73
2023/05/17 08:03:54;;;;;;;;;;;23.50;73.50;;;;;;5089845;28;20390;-73
2023/05/17 08:06:19;;;;;;;;;;;23.30;73.50;;;;;;5089315;28;19920;-73
2023/05/17 08:08:45;;;;;;;;;;;23.20;73.80;;;;;;5089128;28;19918;-72
2023/05/17 08:11:11;;;;;;;;;;;23.10;73.70;;;;;;5089533;28;19919;-73
2023/05/17 08:13:37;;;;;;;;;;;23.00;73.70;;;;;;5089688;28;19920;-73
2023/05/17 08:16:06;;;;;;;;;;;23.00;74.10;;;;;;5087028;28;19965;-73
2023/05/17 08:18:32;;;;;;;;;;;23.20;74.60;;;;;;5088045;28;19918;-73
2023/05/17 08:20:58;;;;;;;;;;;23.60;74.70;;;;;;5089560;28;20006;-72
2023/05/17 08:23:23;;;;;;;;;;;24.10;74.70;;;;;;5091021;28;19922;-78
2023/05/17 08:25:49;;;;;;;;;;;24.40;74.40;;;;;;5091891;28;19908;-78
2023/05/17 08:28:15;;;;;;;;;;;24.40;73.90;;;;;;5087887;28;20443;-78
2023/05/17 08:30:40;;;;;;;;;;;24.50;74.30;;;;;;5090915;28;20003;-79
2023/05/17 08:33:08;;;;;;;;;;;24.90;74.60;;;;;;5091019;28;19935;-78
2023/05/17 08:35:36;;;;;;;;;;;25.30;74.50;;;;;;5090172;28;20368;-76
2023/05/17 08:38:02;;;;;;;;;;;25.70;74.70;;;;;;5090033;28;20413;-78
2023/05/17 08:40:28;;;;;;;;;;;25.80;74.50;;;;;;5088810;28;19908;-79
2023/05/17 08:42:53;;;;;;;;;;;26.00;74.50;;;;;;5089492;28;19962;-78
2023/05/17 08:45:20;;;;;;;;;;;26.10;74.60;;;;;;5090263;28;19912;-77
2023/05/17 08:47:47;;;;;;;;;;;26.60;75.20;;;;;;5090373;28;20520;-77
2023/05/17 08:50:13;;;;;;;;;;;27.20;75.30;;;;;;5089084;28;20374;-76
2023/05/17 08:52:39;;;;;;;;;;;27.80;75.30;;;;;;5089662;28;19916;-78
2023/05/17 08:55:07;;;;;;;;;;;28.50;75.30;;;;;;5089838;28;19916;-77
2023/05/17 08:57:33;;;;;;;;;;;28.90;75.10;;;;;;5090254;28;19912;-78
2023/05/17 09:00:18;;;;;;;;;;;29.50;75.40;;;;;;5090087;28;19975;-78
2023/05/17 09:02:43;;;;;;;;;;;30.10;75.40;;;;;;5089561;28;19985;-78
2023/05/17 09:05:09;;;;;;;;;;;30.40;75.30;;;;;;5089927;28;19911;-78
2023/05/17 09:07:35;;;;;;;;;;;30.70;75.60;;;;;;5089831;28;20008;-78
2023/05/17 09:10:04;;;;;;;;;;;31.00;75.80;;;;;;5089676;28;19942;-78
2023/05/17 09:12:33;;;;;;;;;;;31.30;75.50;;;;;;5089096;28;19924;-78
2023/05/17 09:15:15;;;;;;;;;;;31.20;75.30;;;;;;5088702;28;19999;-74
2023/05/17 09:17:41;;;;;;;;;;;31.20;75.70;;;;;;5088925;28;19958;-73
2023/05/17 09:20:08;;;;;;;;;;;31.50;76.10;;;;;;5088991;28;19908;-73
2023/05/17 09:22:34;;;;;;;;;;;31.50;76.30;;;;;;5088923;28;19908;-72
2023/05/17 09:25:03;;;;;;;;;;;31.30;76.20;;;;;;5087797;28;20372;-73
2023/05/17 09:27:30;;;;;;;;;;;31.60;76.90;;;;;;5088509;28;19912;-72
2023/05/17 09:29:57;;;;;;;;;;;32.00;77.20;;;;;;5086633;28;19961;-74
2023/05/17 09:32:23;;;;;;;;;;;32.30;77.30;;;;;;5086990;28;19927;-74
2023/05/17 09:34:50;;;;;;;;;;;32.50;77.20;;;;;;5088781;28;19908;-74
2023/05/17 09:37:16;;;;;;;;;;;32.70;77.70;;;;;;5088847;28;19908;-74
2023/05/17 09:39:45;;;;;;;;;;;32.70;77.50;;;;;;5087301;28;19934;-74
2023/05/17 09:42:11;;;;;;;;;;;32.90;78.20;;;;;;5088081;28;20363;-75
2023/05/17 09:45:03;;;;;;;;;;;33.10;77.90;;;;;;5088650;28;20485;-74
2023/05/17 09:47:29;;;;;;;;;;;33.30;77.90;;;;;;5087265;28;19999;-74
2023/05/17 09:49:56;;;;;;;;;;;33.50;77.80;;;;;;5088098;28;20348;-73
2023/05/17 09:52:21;;;;;;;;;;;33.80;78.10;;;;;;5087726;28;19919;-73
2023/05/17 09:54:51;;;;;;;;;;;34.00;77.80;;;;;;5086235;28;19909;-73
2023/05/17 09:57:17;;;;;;;;;;;33.80;77.40;;;;;;5087720;28;19912;-74
2023/05/17 09:59:43;;;;;;;;;;;33.60;77.40;;;;;;5087339;28;19916;-74
2023/05/17 10:02:09;;;;;;;;;;;33.40;76.90;;;;;;5087571;28;19935;-73
2023/05/17 10:04:36;;;;;;;;;;;33.10;77.20;;;;;;5088342;28;20294;-73
2023/05/17 10:07:03;;;;;;;;;;;33.10;77.90;;;;;;5088101;28;19915;-73
2023/05/17 10:09:33;;;;;;;;;;;33.20;78.20;;;;;;5088453;28;20280;-73
2023/05/17 10:11:59;;;;;;;;;;;33.10;77.80;;;;;;5088436;28;19934;-74
2023/05/17 10:14:31;;;;;;;;;;;32.80;77.40;;;;;;5088057;28;20340;-72
2023/05/17 10:16:57;;;;;;;;;;;32.70;77.50;;;;;;5086477;28;19912;-74
2023/05/17 10:19:24;;;;;;;;;;;32.50;77.40;;;;;;5088152;28;19912;-74
2023/05/17 10:21:50;;;;;;;;;;;32.60;77.60;;;;;;5088019;28;19908;-74
2023/05/17 10:24:16;;;;;;;;;;;32.70;77.90;;;;;;5086686;28;19908;-73
2023/05/17 10:26:42;;;;;;;;;;;32.70;77.80;;;;;;5087868;28;19919;-74
2023/05/17 10:29:08;;;;;;;;;;;33.00;78.20;;;;;;5087970;28;19995;-74
2023/05/17 10:31:35;;;;;;;;;;;33.10;77.70;;;;;;5087807;28;19943;-75
2023/05/17 10:34:01;;;;;;;;;;;33.00;77.50;;;;;;5087917;28;19916;-74
2023/05/17 10:36:27;;;;;;;;;;;33.10;77.90;;;;;;5088069;28;19931;-75
2023/05/17 10:38:54;;;;;;;;;;;33.20;78.00;;;;;;5088062;28;20253;-75
2023/05/17 10:41:24;;;;;;;;;;;33.20;78.30;;;;;;5088305;28;19912;-75
2023/05/17 10:43:50;;;;;;;;;;;33.00;77.90;;;;;;5091907;28;20481;-74
2023/05/17 10:46:20;;;;;;;;;;;33.10;78.30;;;;;;5091835;28;19908;-75
2023/05/17 10:48:52;;;;;;;;;;;33.20;78.50;;;;;;5090374;28;20276;-75
2023/05/17 10:51:23;;;;;;;;;;;33.30;78.40;;;;;;5089823;28;20379;-73
2023/05/17 10:54:09;;;;;;;;;;;33.40;78.30;;;;;;5091105;28;19920;-73
2023/05/17 10:56:37;;;;;;;;;;;33.40;78.30;;;;;;5088575;28;19957;-74
2023/05/17 10:59:22;;;;;;;;;;;33.40;78.20;;;;;;5091057;28;19962;-77
2023/05/17 11:01:53;;;;;;;;;;;33.10;77.90;;;;;;5088802;28;19924;-72
2023/05/17 11:04:19;;;;;;;;;;;33.00;78.10;;;;;;5091625;28;19931;-71
2023/05/17 11:06:45;;;;;;;;;;;33.10;78.20;;;;;;5089658;28;20268;-72
2023/05/17 11:09:17;;;;;;;;;;;33.10;78.40;;;;;;5089860;28;19916;-71
2023/05/17 11:12:01;;;;;;;;;;;33.20;78.70;;;;;;5094989;28;19912;-74
2023/05/17 11:14:41;;;;;;;;;;;33.40;78.90;;;;;;5089886;28;19912;-72
2023/05/17 11:17:13;;;;;;;;;;;33.60;78.70;;;;;;5091017;28;19931;-70
2023/05/17 11:20:09;;;;;;;;;;;33.70;78.30;;;;;;5090830;28;20289;-73
2023/05/17 11:22:36;;;;;;;;;;;33.50;77.60;;;;;;5081889;28;19912;-74
2023/05/17 11:25:05;;;;;;;;;;;33.30;77.90;;;;;;5090628;28;20410;-72
2023/05/17 11:27:35;;;;;;;;;;;32.90;77.50;;;;;;5090845;28;20383;-72
2023/05/17 11:30:06;;;;;;;;;;;32.70;78.00;;;;;;5090033;28;19909;-71
2023/05/17 11:32:31;;;;;;;;;;;32.70;78.30;;;;;;5090578;28;19977;-72
2023/05/17 11:35:00;;;;;;;;;;;32.80;78.00;;;;;;5091006;28;19908;-74
2023/05/17 11:37:30;;;;;;;;;;;32.70;77.70;;;;;;5090625;28;19940;-71
2023/05/17 11:40:06;;;;;;;;;;;32.70;77.70;;;;;;5089178;28;19916;-71
2023/05/17 11:42:32;;;;;;;;;;;32.40;77.00;;;;;;5090898;28;19908;-72
2023/05/17 11:45:01;;;;;;;;;;;31.80;77.00;;;;;;5090569;28;20217;-71
2023/05/17 11:47:27;;;;;;;;;;;31.50;77.90;;;;;;5090594;28;19928;-73
2023/05/17 11:49:53;;;;;;;;;;;31.60;78.00;;;;;;5090363;28;19912;-71
2023/05/17 11:52:19;;;;;;;;;;;31.60;77.70;;;;;;5090741;28;19927;-75
2023/05/17 11:54:45;;;;;;;;;;;31.60;77.70;;;;;;5089982;28;19908;-71
2023/05/17 11:57:15;;;;;;;;;;;31.70;77.90;;;;;;5090658;28;19923;-71
2023/05/17 11:59:44;;;;;;;;;;;31.90;77.80;;;;;;5090482;28;20280;-71
2023/05/17 12:02:24;;;;;;;;;;;32.00;77.90;;;;;;5089971;28;19927;-70
2023/05/17 12:04:50;;;;;;;;;;;32.00;77.40;;;;;;5088685;28;19912;-75
2023/05/17 12:07:15;;;;;;;;;;;31.30;76.60;;;;;;5090810;28;20352;-74
2023/05/17 12:09:43;;;;;;;;;;;30.50;76.10;;;;;;5090447;28;19995;-74
2023/05/17 12:12:09;;;;;;;;;;;29.80;76.50;;;;;;5090385;28;19932;-74
2023/05/17 12:14:35;;;;;;;;;;;29.70;77.50;;;;;;5089142;28;19912;-74
2023/05/17 12:17:02;;;;;;;;;;;29.90;78.10;;;;;;5088806;28;19923;-75
2023/05/17 12:19:29;;;;;;;;;;;30.40;78.40;;;;;;5090427;28;19925;-75
2023/05/17 12:22:06;;;;;;;;;;;30.70;78.00;;;;;;5090236;28;19965;-73
2023/05/17 12:24:38;;;;;;;;;;;30.60;77.50;;;;;;5089537;28;19912;-74
2023/05/17 12:27:04;;;;;;;;;;;30.60;77.40;;;;;;5089764;28;19908;-74
2023/05/17 12:29:30;;;;;;;;;;;30.60;77.10;;;;;;5089595;28;20327;-73
2023/05/17 12:31:56;;;;;;;;;;;30.10;76.40;;;;;;5089274;28;20014;-72
2023/05/17 12:34:22;;;;;;;;;;;29.70;76.30;;;;;;5089634;28;19919;-74
2023/05/17 12:36:48;;;;;;;;;;;29.30;76.40;;;;;;5089766;28;19913;-74
2023/05/17 12:39:14;;;;;;;;;;;28.90;76.40;;;;;;5089039;28;19913;-73
2023/05/17 12:41:40;;;;;;;;;;;28.60;76.20;;;;;;5089708;28;19908;-72
2023/05/17 12:44:06;;;;;;;;;;;28.30;76.20;;;;;;5089837;28;20363;-74
2023/05/17 12:46:32;;;;;;;;;;;28.00;76.20;;;;;;5088750;28;19948;-73
2023/05/17 12:49:08;;;;;;;;;;;27.70;76.30;;;;;;5089696;28;20375;-74
2023/05/17 12:51:43;;;;;;;;;;;27.40;76.60;;;;;;5087871;28;19977;-73
2023/05/17 12:54:08;;;;;;;;;;;27.70;77.90;;;;;;5089876;28;19920;-74
2023/05/17 12:56:34;;;;;;;;;;;27.90;76.90;;;;;;5089810;28;19908;-74
2023/05/17 12:59:06;;;;;;;;;;;27.90;76.60;;;;;;5089897;28;19912;-75
2023/05/17 13:01:35;;;;;;;;;;;27.70;75.90;;;;;;5089647;28;20041;-75
2023/05/17 13:04:01;;;;;;;;;;;27.50;76.20;;;;;;5090088;28;19970;-76
2023/05/17 13:06:27;;;;;;;;;;;27.20;75.50;;;;;;5088837;28;20399;-75
2023/05/17 13:08:59;;;;;;;;;;;26.90;75.50;;;;;;5089245;28;19912;-73
2023/05/17 13:11:25;;;;;;;;;;;26.60;75.40;;;;;;5088744;28;19928;-74
2023/05/17 13:13:50;;;;;;;;;;;26.40;75.20;;;;;;5089654;28;19919;-76
2023/05/17 13:16:22;;;;;;;;;;;26.20;75.40;;;;;;5089556;28;20279;-74
2023/05/17 13:18:51;;;;;;;;;;;26.10;75.60;;;;;;5088678;28;20353;-77
2023/05/17 13:21:17;;;;;;;;;;;26.20;75.90;;;;;;5088818;28;19916;-74
2023/05/17 13:23:44;;;;;;;;;;;26.30;75.90;;;;;;5089310;28;20394;-74
2023/05/17 13:26:11;;;;;;;;;;;26.50;75.80;;;;;;5087393;28;19924;-76
2023/05/17 13:28:37;;;;;;;;;;;26.70;75.90;;;;;;5088937;28;19916;-75
2023/05/17 13:31:03;;;;;;;;;;;26.90;75.90;;;;;;5088959;28;19939;-74
2023/05/17 13:33:30;;;;;;;;;;;27.00;75.70;;;;;;5088734;28;19916;-75
2023/05/17 13:35:55;;;;;;;;;;;26.90;75.30;;;;;;5088412;28;20394;-73
2023/05/17 13:38:21;;;;;;;;;;;26.70;75.30;;;;;;5088664;28;19934;-73
2023/05/17 13:40:46;;;;;;;;;;;26.50;75.30;;;;;;5087939;28;20415;-73
2023/05/17 13:43:12;;;;;;;;;;;26.40;75.00;;;;;;5089100;28;19912;-78
2023/05/17 13:45:37;;;;;;;;;;;26.20;75.10;;;;;;5089378;28;20237;-78
2023/05/17 13:48:03;;;;;;;;;;;26.20;75.10;;;;;;5089217;28;19920;-78
2023/05/17 13:50:29;;;;;;;;;;;26.10;74.90;;;;;;5088936;28;20019;-78
2023/05/17 13:52:55;;;;;;;;;;;26.00;74.90;;;;;;5087473;28;20316;-78
2023/05/17 13:55:20;;;;;;;;;;;25.90;75.10;;;;;;5088661;28;19987;-77
2023/05/17 13:57:46;;;;;;;;;;;25.80;75.60;;;;;;5088032;28;20569;-77
2023/05/17 14:00:12;;;;;;;;;;;25.70;75.00;;;;;;5087141;28;19913;-75
2023/05/17 14:02:38;;;;;;;;;;;25.70;75.20;;;;;;5088099;28;19924;-78
2023/05/17 14:05:06;;;;;;;;;;;25.60;75.00;;;;;;5087560;28;20268;-77
2023/05/17 14:07:32;;;;;;;;;;;25.60;75.10;;;;;;5088172;28;19918;-75
2023/05/17 14:09:57;;;;;;;;;;;25.70;75.20;;;;;;5088179;28;19953;-76
2023/05/17 14:12:23;;;;;;;;;;;25.80;74.90;;;;;;5088328;28;19923;-77
2023/05/17 14:14:48;;;;;;;;;;;25.60;74.30;;;;;;5088506;28;20002;-76